sensor_id;sensor_type;location;lat;lon;timestamp;P1;durP1;ratioP1;P2;durP2;ratioP2
14171;SDS011;7165;52.388;4.928;2022-10-16T00:00:07;4.82;;;3.15;;
14171;SDS011;7165;52.388;4.928;2022-10-16T00:02:35;3.55;;;2.30;;
14171;SDS011;7165;52.388;4.928;2022-10-16T00:05:03;10.80;;;4.07;;
14171;SDS011;7165;52.388;4.928;2022-10-16T00:07:30;3.60;;;1.83;;
14171;SDS011;7165;52.388;4.928;2022-10-16T00:09:56;2.25;;;2.10;;
14171;SDS011;7165;52.388;4.928;2022-10-16T00:12:23;2.53;;;2.17;;
14171;SDS011;7165;52.388;4.928;2022-10-16T00:14:50;2.72;;;2.10;;
14171;SDS011;7165;52.388;4.928;2022-10-16T00:17:16;3.75;;;2.65;;
14171;SDS011;7165;52.388;4.928;2022-10-16T00:19:43;3.65;;;2.10;;
14171;SDS011;7165;52.388;4.928;2022-10-16T00:22:11;2.40;;;1.80;;
14171;SDS011;7165;52.388;4.928;2022-10-16T00:24:38;3.95;;;2.97;;
14171;SDS011;7165;52.388;4.928;2022-10-16T00:27:04;4.45;;;3.00;;
14171;SDS011;7165;52.388;4.928;2022-10-16T00:29:31;4.25;;;2.88;;
14171;SDS011;7165;52.388;4.928;2022-10-16T00:31:58;3.17;;;2.78;;
14171;SDS011;7165;52.388;4.928;2022-10-16T00:34:24;4.22;;;3.00;;
14171;SDS011;7165;52.388;4.928;2022-10-16T00:36:51;5.13;;;3.15;;
14171;SDS011;7165;52.388;4.928;2022-10-16T00:39:19;9.35;;;4.72;;
14171;SDS011;7165;52.388;4.928;2022-10-16T00:41:46;5.35;;;3.70;;
14171;SDS011;7165;52.388;4.928;2022-10-16T00:47:09;7.13;;;4.35;;
14171;SDS011;7165;52.388;4.928;2022-10-16T00:49:37;5.68;;;3.17;;
14171;SDS011;7165;52.388;4.928;2022-10-16T00:52:04;2.95;;;2.75;;
14171;SDS011;7165;52.388;4.928;2022-10-16T00:54:33;2.70;;;2.30;;
14171;SDS011;7165;52.388;4.928;2022-10-16T00:57:01;3.42;;;2.88;;
14171;SDS011;7165;52.388;4.928;2022-10-16T00:59:31;3.13;;;2.88;;
14171;SDS011;7165;52.388;4.928;2022-10-16T01:02:00;3.47;;;2.40;;
14171;SDS011;7165;52.388;4.928;2022-10-16T01:04:27;6.03;;;2.72;;
14171;SDS011;7165;52.388;4.928;2022-10-16T01:07:00;4.93;;;2.80;;
14171;SDS011;7165;52.388;4.928;2022-10-16T01:09:39;5.07;;;2.92;;
14171;SDS011;7165;52.388;4.928;2022-10-16T01:12:15;3.75;;;2.90;;
14171;SDS011;7165;52.388;4.928;2022-10-16T01:14:51;3.50;;;2.47;;
14171;SDS011;7165;52.388;4.928;2022-10-16T01:17:24;7.07;;;2.70;;
14171;SDS011;7165;52.388;4.928;2022-10-16T01:20:03;2.58;;;2.20;;
14171;SDS011;7165;52.388;4.928;2022-10-16T01:22:38;3.33;;;2.60;;
14171;SDS011;7165;52.388;4.928;2022-10-16T01:25:16;4.13;;;2.90;;
14171;SDS011;7165;52.388;4.928;2022-10-16T01:27:51;5.45;;;3.47;;
14171;SDS011;7165;52.388;4.928;2022-10-16T01:30:19;3.40;;;2.80;;
14171;SDS011;7165;52.388;4.928;2022-10-16T01:32:49;3.85;;;3.03;;
14171;SDS011;7165;52.388;4.928;2022-10-16T01:35:21;4.35;;;2.25;;
14171;SDS011;7165;52.388;4.928;2022-10-16T01:37:51;3.40;;;2.35;;
14171;SDS011;7165;52.388;4.928;2022-10-16T01:40:24;2.28;;;1.98;;
14171;SDS011;7165;52.388;4.928;2022-10-16T01:42:55;3.00;;;2.10;;
14171;SDS011;7165;52.388;4.928;2022-10-16T01:45:28;3.75;;;2.70;;
14171;SDS011;7165;52.388;4.928;2022-10-16T01:47:57;4.30;;;2.08;;
14171;SDS011;7165;52.388;4.928;2022-10-16T01:50:29;3.55;;;2.47;;
14171;SDS011;7165;52.388;4.928;2022-10-16T01:52:58;1.88;;;1.77;;
14171;SDS011;7165;52.388;4.928;2022-10-16T01:55:26;2.92;;;1.95;;
14171;SDS011;7165;52.388;4.928;2022-10-16T01:57:58;1.95;;;1.65;;
14171;SDS011;7165;52.388;4.928;2022-10-16T02:00:27;3.70;;;1.95;;
14171;SDS011;7165;52.388;4.928;2022-10-16T02:02:56;2.38;;;2.17;;
14171;SDS011;7165;52.388;4.928;2022-10-16T02:05:28;3.05;;;1.85;;
14171;SDS011;7165;52.388;4.928;2022-10-16T02:07:58;4.05;;;1.98;;
14171;SDS011;7165;52.388;4.928;2022-10-16T02:10:25;6.00;;;2.35;;
14171;SDS011;7165;52.388;4.928;2022-10-16T02:12:56;2.90;;;2.60;;
14171;SDS011;7165;52.388;4.928;2022-10-16T02:15:26;4.63;;;2.28;;
14171;SDS011;7165;52.388;4.928;2022-10-16T02:17:53;3.80;;;2.47;;
14171;SDS011;7165;52.388;4.928;2022-10-16T02:20:20;2.55;;;2.33;;
14171;SDS011;7165;52.388;4.928;2022-10-16T02:22:53;2.72;;;2.50;;
14171;SDS011;7165;52.388;4.928;2022-10-16T02:25:22;3.75;;;2.38;;
14171;SDS011;7165;52.388;4.928;2022-10-16T02:27:53;4.32;;;2.30;;
14171;SDS011;7165;52.388;4.928;2022-10-16T02:30:33;5.90;;;2.50;;
14171;SDS011;7165;52.388;4.928;2022-10-16T02:33:05;2.00;;;1.90;;
14171;SDS011;7165;52.388;4.928;2022-10-16T02:35:34;2.13;;;2.00;;
14171;SDS011;7165;52.388;4.928;2022-10-16T02:38:02;3.35;;;2.30;;
14171;SDS011;7165;52.388;4.928;2022-10-16T02:40:30;2.95;;;2.05;;
14171;SDS011;7165;52.388;4.928;2022-10-16T02:42:57;4.03;;;3.13;;
14171;SDS011;7165;52.388;4.928;2022-10-16T02:45:25;4.65;;;3.63;;
14171;SDS011;7165;52.388;4.928;2022-10-16T02:47:51;3.60;;;2.33;;
14171;SDS011;7165;52.388;4.928;2022-10-16T02:50:18;3.85;;;2.50;;
14171;SDS011;7165;52.388;4.928;2022-10-16T02:52:45;2.67;;;2.47;;
14171;SDS011;7165;52.388;4.928;2022-10-16T02:55:12;2.65;;;2.45;;
14171;SDS011;7165;52.388;4.928;2022-10-16T02:57:38;3.85;;;2.25;;
14171;SDS011;7165;52.388;4.928;2022-10-16T03:00:06;2.80;;;2.28;;
14171;SDS011;7165;52.388;4.928;2022-10-16T03:02:35;7.30;;;2.58;;
14171;SDS011;7165;52.388;4.928;2022-10-16T03:05:02;2.70;;;2.15;;
14171;SDS011;7165;52.388;4.928;2022-10-16T03:07:28;2.80;;;2.50;;
14171;SDS011;7165;52.388;4.928;2022-10-16T03:09:55;5.03;;;3.22;;
14171;SDS011;7165;52.388;4.928;2022-10-16T03:12:25;3.80;;;3.00;;
14171;SDS011;7165;52.388;4.928;2022-10-16T03:14:51;3.40;;;3.10;;
14171;SDS011;7165;52.388;4.928;2022-10-16T03:17:18;5.18;;;3.95;;
14171;SDS011;7165;52.388;4.928;2022-10-16T03:19:46;3.65;;;3.35;;
14171;SDS011;7165;52.388;4.928;2022-10-16T03:22:13;4.80;;;4.38;;
14171;SDS011;7165;52.388;4.928;2022-10-16T03:24:39;3.35;;;3.10;;
14171;SDS011;7165;52.388;4.928;2022-10-16T03:27:06;4.28;;;3.50;;
14171;SDS011;7165;52.388;4.928;2022-10-16T03:29:33;3.72;;;3.42;;
14171;SDS011;7165;52.388;4.928;2022-10-16T03:31:59;4.50;;;4.05;;
14171;SDS011;7165;52.388;4.928;2022-10-16T03:34:27;3.30;;;3.10;;
14171;SDS011;7165;52.388;4.928;2022-10-16T03:36:55;5.93;;;3.30;;
14171;SDS011;7165;52.388;4.928;2022-10-16T03:39:21;4.93;;;3.97;;
14171;SDS011;7165;52.388;4.928;2022-10-16T03:41:48;3.28;;;2.97;;
14171;SDS011;7165;52.388;4.928;2022-10-16T03:44:15;4.55;;;3.63;;
14171;SDS011;7165;52.388;4.928;2022-10-16T03:46:41;4.93;;;3.25;;
14171;SDS011;7165;52.388;4.928;2022-10-16T03:49:08;4.07;;;3.78;;
14171;SDS011;7165;52.388;4.928;2022-10-16T03:51:35;3.78;;;3.42;;
14171;SDS011;7165;52.388;4.928;2022-10-16T03:54:03;4.43;;;3.50;;
14171;SDS011;7165;52.388;4.928;2022-10-16T03:56:30;4.32;;;3.95;;
14171;SDS011;7165;52.388;4.928;2022-10-16T03:58:57;6.35;;;4.57;;
14171;SDS011;7165;52.388;4.928;2022-10-16T04:01:23;3.70;;;3.38;;
14171;SDS011;7165;52.388;4.928;2022-10-16T04:03:50;4.53;;;3.92;;
14171;SDS011;7165;52.388;4.928;2022-10-16T04:06:17;4.03;;;3.67;;
14171;SDS011;7165;52.388;4.928;2022-10-16T04:08:43;5.07;;;4.20;;
14171;SDS011;7165;52.388;4.928;2022-10-16T04:11:12;6.88;;;4.18;;
14171;SDS011;7165;52.388;4.928;2022-10-16T04:13:39;5.70;;;4.00;;
14171;SDS011;7165;52.388;4.928;2022-10-16T04:16:06;6.03;;;3.42;;
14171;SDS011;7165;52.388;4.928;2022-10-16T04:18:33;6.30;;;4.32;;
14171;SDS011;7165;52.388;4.928;2022-10-16T04:21:01;6.07;;;4.53;;
14171;SDS011;7165;52.388;4.928;2022-10-16T04:23:29;5.75;;;3.83;;
14171;SDS011;7165;52.388;4.928;2022-10-16T04:25:55;3.78;;;3.47;;
14171;SDS011;7165;52.388;4.928;2022-10-16T04:28:23;5.13;;;3.30;;
14171;SDS011;7165;52.388;4.928;2022-10-16T04:30:50;8.35;;;3.33;;
14171;SDS011;7165;52.388;4.928;2022-10-16T04:33:17;5.85;;;3.95;;
14171;SDS011;7165;52.388;4.928;2022-10-16T04:35:43;4.70;;;3.78;;
14171;SDS011;7165;52.388;4.928;2022-10-16T04:38:10;5.00;;;2.97;;
14171;SDS011;7165;52.388;4.928;2022-10-16T04:40:37;3.25;;;2.67;;
14171;SDS011;7165;52.388;4.928;2022-10-16T04:43:03;6.47;;;3.53;;
14171;SDS011;7165;52.388;4.928;2022-10-16T04:45:32;4.60;;;2.92;;
14171;SDS011;7165;52.388;4.928;2022-10-16T04:47:58;4.75;;;2.85;;
14171;SDS011;7165;52.388;4.928;2022-10-16T04:50:25;5.65;;;2.63;;
14171;SDS011;7165;52.388;4.928;2022-10-16T04:52:52;4.15;;;2.85;;
14171;SDS011;7165;52.388;4.928;2022-10-16T04:55:19;4.55;;;3.10;;
14171;SDS011;7165;52.388;4.928;2022-10-16T04:57:46;4.10;;;2.92;;
14171;SDS011;7165;52.388;4.928;2022-10-16T05:00:12;5.45;;;3.50;;
14171;SDS011;7165;52.388;4.928;2022-10-16T05:02:40;5.65;;;3.97;;
14171;SDS011;7165;52.388;4.928;2022-10-16T05:05:07;3.25;;;2.70;;
14171;SDS011;7165;52.388;4.928;2022-10-16T05:07:34;6.93;;;3.15;;
14171;SDS011;7165;52.388;4.928;2022-10-16T05:10:01;4.97;;;3.42;;
14171;SDS011;7165;52.388;4.928;2022-10-16T05:12:27;5.32;;;3.13;;
14171;SDS011;7165;52.388;4.928;2022-10-16T05:14:54;6.00;;;3.03;;
14171;SDS011;7165;52.388;4.928;2022-10-16T05:17:23;4.50;;;3.10;;
14171;SDS011;7165;52.388;4.928;2022-10-16T05:19:51;5.30;;;2.70;;
14171;SDS011;7165;52.388;4.928;2022-10-16T05:22:18;5.03;;;2.92;;
14171;SDS011;7165;52.388;4.928;2022-10-16T05:24:45;3.83;;;2.95;;
14171;SDS011;7165;52.388;4.928;2022-10-16T05:27:12;3.45;;;2.80;;
14171;SDS011;7165;52.388;4.928;2022-10-16T05:29:43;8.32;;;3.72;;
14171;SDS011;7165;52.388;4.928;2022-10-16T05:32:10;5.65;;;3.40;;
14171;SDS011;7165;52.388;4.928;2022-10-16T05:34:37;4.57;;;3.50;;
14171;SDS011;7165;52.388;4.928;2022-10-16T05:37:05;3.58;;;3.28;;
14171;SDS011;7165;52.388;4.928;2022-10-16T05:39:32;6.03;;;3.17;;
14171;SDS011;7165;52.388;4.928;2022-10-16T05:41:58;5.22;;;3.40;;
14171;SDS011;7165;52.388;4.928;2022-10-16T05:44:25;3.60;;;3.30;;
14171;SDS011;7165;52.388;4.928;2022-10-16T05:46:52;5.20;;;3.42;;
14171;SDS011;7165;52.388;4.928;2022-10-16T05:49:18;4.35;;;3.63;;
14171;SDS011;7165;52.388;4.928;2022-10-16T05:51:45;3.30;;;2.97;;
14171;SDS011;7165;52.388;4.928;2022-10-16T05:54:13;6.00;;;3.50;;
14171;SDS011;7165;52.388;4.928;2022-10-16T05:56:40;4.22;;;3.25;;
14171;SDS011;7165;52.388;4.928;2022-10-16T05:59:06;4.55;;;3.47;;
14171;SDS011;7165;52.388;4.928;2022-10-16T06:01:33;3.78;;;3.35;;
14171;SDS011;7165;52.388;4.928;2022-10-16T06:04:00;7.22;;;3.25;;
14171;SDS011;7165;52.388;4.928;2022-10-16T06:06:27;3.67;;;3.15;;
14171;SDS011;7165;52.388;4.928;2022-10-16T06:08:55;5.53;;;2.95;;
14171;SDS011;7165;52.388;4.928;2022-10-16T06:11:26;3.67;;;3.05;;
14171;SDS011;7165;52.388;4.928;2022-10-16T06:13:55;7.40;;;3.40;;
14171;SDS011;7165;52.388;4.928;2022-10-16T06:18:50;3.22;;;2.70;;
14171;SDS011;7165;52.388;4.928;2022-10-16T06:21:18;5.07;;;2.60;;
14171;SDS011;7165;52.388;4.928;2022-10-16T06:23:46;5.32;;;3.50;;
14171;SDS011;7165;52.388;4.928;2022-10-16T06:38:30;3.50;;;2.92;;
14171;SDS011;7165;52.388;4.928;2022-10-16T06:40:57;6.95;;;3.78;;
14171;SDS011;7165;52.388;4.928;2022-10-16T06:43:24;3.17;;;2.75;;
14171;SDS011;7165;52.388;4.928;2022-10-16T06:45:53;5.93;;;3.42;;
14171;SDS011;7165;52.388;4.928;2022-10-16T06:48:20;3.33;;;2.97;;
14171;SDS011;7165;52.388;4.928;2022-10-16T06:50:57;5.80;;;3.33;;
14171;SDS011;7165;52.388;4.928;2022-10-16T06:53:25;6.30;;;3.88;;
14171;SDS011;7165;52.388;4.928;2022-10-16T06:55:53;6.28;;;3.72;;
14171;SDS011;7165;52.388;4.928;2022-10-16T06:58:20;5.13;;;3.30;;
14171;SDS011;7165;52.388;4.928;2022-10-16T07:00:47;4.60;;;3.38;;
14171;SDS011;7165;52.388;4.928;2022-10-16T07:03:15;5.03;;;3.55;;
14171;SDS011;7165;52.388;4.928;2022-10-16T07:05:42;3.92;;;3.30;;
14171;SDS011;7165;52.388;4.928;2022-10-16T07:08:09;5.40;;;2.90;;
14171;SDS011;7165;52.388;4.928;2022-10-16T07:10:36;6.65;;;3.10;;
14171;SDS011;7165;52.388;4.928;2022-10-16T07:13:02;3.97;;;2.53;;
14171;SDS011;7165;52.388;4.928;2022-10-16T07:15:29;5.85;;;3.13;;
14171;SDS011;7165;52.388;4.928;2022-10-16T07:17:55;6.68;;;3.60;;
14171;SDS011;7165;52.388;4.928;2022-10-16T07:20:23;5.03;;;3.28;;
14171;SDS011;7165;52.388;4.928;2022-10-16T07:22:50;3.72;;;3.03;;
14171;SDS011;7165;52.388;4.928;2022-10-16T07:25:17;6.97;;;3.35;;
14171;SDS011;7165;52.388;4.928;2022-10-16T07:27:44;6.10;;;3.15;;
14171;SDS011;7165;52.388;4.928;2022-10-16T07:30:11;6.07;;;2.60;;
14171;SDS011;7165;52.388;4.928;2022-10-16T07:32:38;5.18;;;3.22;;
14171;SDS011;7165;52.388;4.928;2022-10-16T07:35:05;4.13;;;3.15;;
14171;SDS011;7165;52.388;4.928;2022-10-16T07:37:33;3.80;;;2.92;;
14171;SDS011;7165;52.388;4.928;2022-10-16T07:40:00;5.57;;;2.97;;
14171;SDS011;7165;52.388;4.928;2022-10-16T07:42:27;4.97;;;2.63;;
14171;SDS011;7165;52.388;4.928;2022-10-16T07:44:54;4.90;;;2.40;;
14171;SDS011;7165;52.388;4.928;2022-10-16T07:47:20;7.93;;;2.97;;
14171;SDS011;7165;52.388;4.928;2022-10-16T07:49:47;8.52;;;2.88;;
14171;SDS011;7165;52.388;4.928;2022-10-16T07:52:14;5.00;;;2.50;;
14171;SDS011;7165;52.388;4.928;2022-10-16T07:54:42;3.63;;;2.22;;
14171;SDS011;7165;52.388;4.928;2022-10-16T07:57:08;6.00;;;2.97;;
14171;SDS011;7165;52.388;4.928;2022-10-16T07:59:35;4.80;;;2.58;;
14171;SDS011;7165;52.388;4.928;2022-10-16T08:02:02;3.05;;;2.33;;
14171;SDS011;7165;52.388;4.928;2022-10-16T08:04:28;5.95;;;2.28;;
14171;SDS011;7165;52.388;4.928;2022-10-16T08:06:55;5.45;;;3.28;;
14171;SDS011;7165;52.388;4.928;2022-10-16T08:09:22;5.55;;;2.35;;
14171;SDS011;7165;52.388;4.928;2022-10-16T08:11:50;5.25;;;2.70;;
14171;SDS011;7165;52.388;4.928;2022-10-16T08:14:17;3.50;;;2.45;;
14171;SDS011;7165;52.388;4.928;2022-10-16T08:16:44;7.95;;;2.88;;
14171;SDS011;7165;52.388;4.928;2022-10-16T08:19:10;4.30;;;2.90;;
14171;SDS011;7165;52.388;4.928;2022-10-16T08:21:37;6.53;;;2.50;;
14171;SDS011;7165;52.388;4.928;2022-10-16T08:24:04;4.63;;;2.78;;
14171;SDS011;7165;52.388;4.928;2022-10-16T08:26:31;6.63;;;3.05;;
14171;SDS011;7165;52.388;4.928;2022-10-16T08:28:58;4.63;;;2.88;;
14171;SDS011;7165;52.388;4.928;2022-10-16T08:31:25;7.93;;;3.03;;
14171;SDS011;7165;52.388;4.928;2022-10-16T08:33:52;7.15;;;3.42;;
14171;SDS011;7165;52.388;4.928;2022-10-16T08:36:19;7.00;;;3.03;;
14171;SDS011;7165;52.388;4.928;2022-10-16T08:38:47;4.93;;;3.22;;
14171;SDS011;7165;52.388;4.928;2022-10-16T08:41:18;5.18;;;3.47;;
14171;SDS011;7165;52.388;4.928;2022-10-16T08:44:02;5.57;;;3.10;;
14171;SDS011;7165;52.388;4.928;2022-10-16T08:46:42;4.13;;;3.17;;
14171;SDS011;7165;52.388;4.928;2022-10-16T08:49:16;8.77;;;3.47;;
14171;SDS011;7165;52.388;4.928;2022-10-16T08:51:44;7.88;;;2.60;;
14171;SDS011;7165;52.388;4.928;2022-10-16T08:54:18;5.43;;;2.85;;
14171;SDS011;7165;52.388;4.928;2022-10-16T08:56:53;6.70;;;2.65;;
14171;SDS011;7165;52.388;4.928;2022-10-16T08:59:22;4.20;;;3.03;;
14171;SDS011;7165;52.388;4.928;2022-10-16T09:01:49;8.45;;;3.75;;
14171;SDS011;7165;52.388;4.928;2022-10-16T09:07:21;6.40;;;2.60;;
14171;SDS011;7165;52.388;4.928;2022-10-16T09:10:01;9.40;;;3.05;;
14171;SDS011;7165;52.388;4.928;2022-10-16T09:12:42;10.48;;;3.47;;
14171;SDS011;7165;52.388;4.928;2022-10-16T09:15:20;6.03;;;3.00;;
14171;SDS011;7165;52.388;4.928;2022-10-16T09:17:56;7.88;;;3.05;;
14171;SDS011;7165;52.388;4.928;2022-10-16T09:20:37;9.18;;;3.53;;
14171;SDS011;7165;52.388;4.928;2022-10-16T09:23:15;7.70;;;3.55;;
14171;SDS011;7165;52.388;4.928;2022-10-16T09:25:45;11.55;;;4.32;;
14171;SDS011;7165;52.388;4.928;2022-10-16T09:28:14;10.10;;;3.60;;
14171;SDS011;7165;52.388;4.928;2022-10-16T09:30:43;9.32;;;3.05;;
14171;SDS011;7165;52.388;4.928;2022-10-16T09:33:10;6.65;;;3.05;;
14171;SDS011;7165;52.388;4.928;2022-10-16T09:35:39;7.88;;;3.17;;
14171;SDS011;7165;52.388;4.928;2022-10-16T09:38:07;12.27;;;3.30;;
14171;SDS011;7165;52.388;4.928;2022-10-16T09:40:35;11.88;;;3.90;;
14171;SDS011;7165;52.388;4.928;2022-10-16T09:43:06;9.38;;;3.33;;
14171;SDS011;7165;52.388;4.928;2022-10-16T09:45:54;15.32;;;3.85;;
14171;SDS011;7165;52.388;4.928;2022-10-16T09:48:22;7.55;;;3.00;;
14171;SDS011;7165;52.388;4.928;2022-10-16T09:50:55;11.63;;;4.68;;
14171;SDS011;7165;52.388;4.928;2022-10-16T09:53:23;10.88;;;4.20;;
14171;SDS011;7165;52.388;4.928;2022-10-16T09:55:49;7.43;;;3.42;;
14171;SDS011;7165;52.388;4.928;2022-10-16T09:58:17;12.25;;;3.80;;
14171;SDS011;7165;52.388;4.928;2022-10-16T10:00:48;9.88;;;3.88;;
14171;SDS011;7165;52.388;4.928;2022-10-16T10:03:23;9.27;;;3.70;;
14171;SDS011;7165;52.388;4.928;2022-10-16T10:06:00;7.53;;;2.88;;
14171;SDS011;7165;52.388;4.928;2022-10-16T10:08:30;12.05;;;6.85;;
14171;SDS011;7165;52.388;4.928;2022-10-16T10:10:57;10.68;;;3.80;;
14171;SDS011;7165;52.388;4.928;2022-10-16T10:13:24;12.85;;;3.95;;
14171;SDS011;7165;52.388;4.928;2022-10-16T10:15:52;11.52;;;3.60;;
14171;SDS011;7165;52.388;4.928;2022-10-16T10:18:20;21.48;;;4.15;;
14171;SDS011;7165;52.388;4.928;2022-10-16T10:20:58;11.07;;;4.35;;
14171;SDS011;7165;52.388;4.928;2022-10-16T10:23:26;11.55;;;3.90;;
14171;SDS011;7165;52.388;4.928;2022-10-16T10:25:55;12.25;;;4.85;;
14171;SDS011;7165;52.388;4.928;2022-10-16T10:28:37;10.07;;;3.47;;
14171;SDS011;7165;52.388;4.928;2022-10-16T10:31:13;11.60;;;3.67;;
14171;SDS011;7165;52.388;4.928;2022-10-16T10:33:48;12.98;;;4.30;;
14171;SDS011;7165;52.388;4.928;2022-10-16T10:36:25;8.95;;;4.22;;
14171;SDS011;7165;52.388;4.928;2022-10-16T10:38:57;9.95;;;3.58;;
14171;SDS011;7165;52.388;4.928;2022-10-16T10:41:35;8.90;;;3.58;;
14171;SDS011;7165;52.388;4.928;2022-10-16T10:44:23;10.43;;;3.20;;
14171;SDS011;7165;52.388;4.928;2022-10-16T10:47:01;12.27;;;4.07;;
14171;SDS011;7165;52.388;4.928;2022-10-16T10:49:37;10.35;;;3.85;;
14171;SDS011;7165;52.388;4.928;2022-10-16T10:52:29;12.60;;;4.47;;
14171;SDS011;7165;52.388;4.928;2022-10-16T10:55:10;6.30;;;2.97;;
14171;SDS011;7165;52.388;4.928;2022-10-16T10:57:49;7.18;;;3.42;;
14171;SDS011;7165;52.388;4.928;2022-10-16T11:00:30;8.55;;;3.28;;
14171;SDS011;7165;52.388;4.928;2022-10-16T11:03:08;12.55;;;3.75;;
14171;SDS011;7165;52.388;4.928;2022-10-16T11:05:45;10.20;;;2.92;;
14171;SDS011;7165;52.388;4.928;2022-10-16T11:08:15;10.07;;;3.10;;
14171;SDS011;7165;52.388;4.928;2022-10-16T11:10:48;9.07;;;3.47;;
14171;SDS011;7165;52.388;4.928;2022-10-16T11:13:24;15.90;;;3.72;;
14171;SDS011;7165;52.388;4.928;2022-10-16T11:15:57;10.65;;;3.47;;
14171;SDS011;7165;52.388;4.928;2022-10-16T11:18:27;8.95;;;3.08;;
14171;SDS011;7165;52.388;4.928;2022-10-16T11:21:00;9.88;;;3.38;;
14171;SDS011;7165;52.388;4.928;2022-10-16T11:23:33;11.45;;;3.03;;
14171;SDS011;7165;52.388;4.928;2022-10-16T11:26:08;20.50;;;4.60;;
14171;SDS011;7165;52.388;4.928;2022-10-16T11:28:39;10.10;;;3.67;;
14171;SDS011;7165;52.388;4.928;2022-10-16T11:31:13;11.18;;;3.13;;
14171;SDS011;7165;52.388;4.928;2022-10-16T11:33:46;11.35;;;3.47;;
14171;SDS011;7165;52.388;4.928;2022-10-16T11:36:18;6.20;;;3.17;;
14171;SDS011;7165;52.388;4.928;2022-10-16T11:38:51;6.88;;;2.20;;
14171;SDS011;7165;52.388;4.928;2022-10-16T11:41:24;9.27;;;5.88;;
14171;SDS011;7165;52.388;4.928;2022-10-16T11:44:05;12.07;;;5.07;;
14171;SDS011;7165;52.388;4.928;2022-10-16T11:46:40;11.50;;;3.15;;
14171;SDS011;7165;52.388;4.928;2022-10-16T11:49:14;10.32;;;2.88;;
14171;SDS011;7165;52.388;4.928;2022-10-16T11:51:45;11.05;;;3.47;;
14171;SDS011;7165;52.388;4.928;2022-10-16T11:54:22;6.28;;;2.28;;
14171;SDS011;7165;52.388;4.928;2022-10-16T11:56:57;8.13;;;2.83;;
14171;SDS011;7165;52.388;4.928;2022-10-16T11:59:28;6.97;;;2.30;;
14171;SDS011;7165;52.388;4.928;2022-10-16T12:02:07;8.63;;;3.05;;
14171;SDS011;7165;52.388;4.928;2022-10-16T12:04:50;5.22;;;2.30;;
14171;SDS011;7165;52.388;4.928;2022-10-16T12:07:26;7.15;;;3.05;;
14171;SDS011;7165;52.388;4.928;2022-10-16T12:10:09;6.97;;;2.20;;
14171;SDS011;7165;52.388;4.928;2022-10-16T12:12:37;9.43;;;2.90;;
14171;SDS011;7165;52.388;4.928;2022-10-16T12:15:18;9.13;;;3.15;;
14171;SDS011;7165;52.388;4.928;2022-10-16T12:17:46;6.97;;;2.90;;
14171;SDS011;7165;52.388;4.928;2022-10-16T12:20:21;7.72;;;2.42;;
14171;SDS011;7165;52.388;4.928;2022-10-16T12:22:52;8.30;;;2.95;;
14171;SDS011;7165;52.388;4.928;2022-10-16T12:25:23;4.28;;;1.95;;
14171;SDS011;7165;52.388;4.928;2022-10-16T12:28:00;8.20;;;2.55;;
14171;SDS011;7165;52.388;4.928;2022-10-16T12:30:28;7.25;;;2.67;;
14171;SDS011;7165;52.388;4.928;2022-10-16T12:32:57;7.75;;;2.65;;
14171;SDS011;7165;52.388;4.928;2022-10-16T12:35:27;6.90;;;2.65;;
14171;SDS011;7165;52.388;4.928;2022-10-16T12:38:04;7.47;;;3.58;;
14171;SDS011;7165;52.388;4.928;2022-10-16T12:40:35;8.25;;;2.83;;
14171;SDS011;7165;52.388;4.928;2022-10-16T12:43:13;9.50;;;2.92;;
14171;SDS011;7165;52.388;4.928;2022-10-16T12:46:03;5.38;;;2.35;;
14171;SDS011;7165;52.388;4.928;2022-10-16T12:48:31;4.95;;;2.30;;
14171;SDS011;7165;52.388;4.928;2022-10-16T12:51:09;4.88;;;2.20;;
14171;SDS011;7165;52.388;4.928;2022-10-16T12:53:37;10.40;;;3.35;;
14171;SDS011;7165;52.388;4.928;2022-10-16T12:56:11;12.48;;;2.78;;
14171;SDS011;7165;52.388;4.928;2022-10-16T12:58:53;6.85;;;2.45;;
14171;SDS011;7165;52.388;4.928;2022-10-16T13:01:34;5.72;;;2.40;;
14171;SDS011;7165;52.388;4.928;2022-10-16T13:04:20;5.22;;;2.38;;
14171;SDS011;7165;52.388;4.928;2022-10-16T13:06:58;8.00;;;4.05;;
14171;SDS011;7165;52.388;4.928;2022-10-16T13:09:42;5.07;;;2.40;;
14171;SDS011;7165;52.388;4.928;2022-10-16T13:12:22;5.47;;;2.17;;
14171;SDS011;7165;52.388;4.928;2022-10-16T13:17:52;6.45;;;2.28;;
14171;SDS011;7165;52.388;4.928;2022-10-16T13:20:26;8.00;;;2.78;;
14171;SDS011;7165;52.388;4.928;2022-10-16T13:23:02;6.55;;;2.15;;
14171;SDS011;7165;52.388;4.928;2022-10-16T13:25:41;9.20;;;2.08;;
14171;SDS011;7165;52.388;4.928;2022-10-16T13:28:21;7.78;;;2.63;;
14171;SDS011;7165;52.388;4.928;2022-10-16T13:30:53;5.47;;;2.22;;
14171;SDS011;7165;52.388;4.928;2022-10-16T13:33:24;7.13;;;2.17;;
14171;SDS011;7165;52.388;4.928;2022-10-16T13:36:01;3.30;;;1.67;;
14171;SDS011;7165;52.388;4.928;2022-10-16T13:38:29;6.47;;;2.50;;
14171;SDS011;7165;52.388;4.928;2022-10-16T13:40:58;4.05;;;1.92;;
14171;SDS011;7165;52.388;4.928;2022-10-16T13:43:28;6.00;;;2.55;;
14171;SDS011;7165;52.388;4.928;2022-10-16T13:46:01;6.13;;;2.55;;
14171;SDS011;7165;52.388;4.928;2022-10-16T13:48:29;10.18;;;2.28;;
14171;SDS011;7165;52.388;4.928;2022-10-16T13:51:04;4.15;;;2.05;;
14171;SDS011;7165;52.388;4.928;2022-10-16T13:53:33;8.10;;;2.30;;
14171;SDS011;7165;52.388;4.928;2022-10-16T13:56:02;5.18;;;1.95;;
14171;SDS011;7165;52.388;4.928;2022-10-16T13:58:32;6.40;;;2.10;;
14171;SDS011;7165;52.388;4.928;2022-10-16T14:01:00;5.65;;;2.38;;
14171;SDS011;7165;52.388;4.928;2022-10-16T14:03:28;6.45;;;2.20;;
14171;SDS011;7165;52.388;4.928;2022-10-16T14:05:56;7.95;;;2.90;;
14171;SDS011;7165;52.388;4.928;2022-10-16T14:08:26;4.55;;;2.72;;
14171;SDS011;7165;52.388;4.928;2022-10-16T14:10:55;7.68;;;2.67;;
14171;SDS011;7165;52.388;4.928;2022-10-16T14:13:27;10.18;;;2.72;;
14171;SDS011;7165;52.388;4.928;2022-10-16T14:15:59;7.80;;;3.78;;
14171;SDS011;7165;52.388;4.928;2022-10-16T14:18:31;6.72;;;3.10;;
14171;SDS011;7165;52.388;4.928;2022-10-16T14:21:02;8.52;;;3.17;;
14171;SDS011;7165;52.388;4.928;2022-10-16T14:23:30;7.03;;;3.53;;
14171;SDS011;7165;52.388;4.928;2022-10-16T14:26:13;6.85;;;2.92;;
14171;SDS011;7165;52.388;4.928;2022-10-16T14:28:42;6.80;;;2.72;;
14171;SDS011;7165;52.388;4.928;2022-10-16T14:31:25;10.13;;;2.72;;
14171;SDS011;7165;52.388;4.928;2022-10-16T14:33:54;6.63;;;3.15;;
14171;SDS011;7165;52.388;4.928;2022-10-16T14:36:21;6.47;;;2.35;;
14171;SDS011;7165;52.388;4.928;2022-10-16T14:38:51;8.65;;;2.65;;
14171;SDS011;7165;52.388;4.928;2022-10-16T14:41:23;7.60;;;2.33;;
14171;SDS011;7165;52.388;4.928;2022-10-16T14:43:51;7.18;;;1.95;;
14171;SDS011;7165;52.388;4.928;2022-10-16T14:46:20;5.93;;;2.45;;
14171;SDS011;7165;52.388;4.928;2022-10-16T14:49:01;7.18;;;2.72;;
14171;SDS011;7165;52.388;4.928;2022-10-16T14:51:30;8.55;;;3.03;;
14171;SDS011;7165;52.388;4.928;2022-10-16T14:53:57;7.70;;;2.67;;
14171;SDS011;7165;52.388;4.928;2022-10-16T14:56:24;8.80;;;2.42;;
14171;SDS011;7165;52.388;4.928;2022-10-16T14:58:54;7.85;;;2.50;;
14171;SDS011;7165;52.388;4.928;2022-10-16T15:01:22;8.45;;;3.25;;
14171;SDS011;7165;52.388;4.928;2022-10-16T15:03:48;7.40;;;3.00;;
14171;SDS011;7165;52.388;4.928;2022-10-16T15:06:18;7.47;;;2.50;;
14171;SDS011;7165;52.388;4.928;2022-10-16T15:08:45;9.20;;;2.85;;
14171;SDS011;7165;52.388;4.928;2022-10-16T15:11:11;7.85;;;3.30;;
14171;SDS011;7165;52.388;4.928;2022-10-16T15:13:40;9.85;;;3.22;;
14171;SDS011;7165;52.388;4.928;2022-10-16T15:16:07;6.85;;;2.58;;
14171;SDS011;7165;52.388;4.928;2022-10-16T15:18:37;6.32;;;2.75;;
14171;SDS011;7165;52.388;4.928;2022-10-16T15:21:03;5.40;;;2.55;;
14171;SDS011;7165;52.388;4.928;2022-10-16T15:23:32;12.43;;;7.55;;
14171;SDS011;7165;52.388;4.928;2022-10-16T15:25:59;10.80;;;3.35;;
14171;SDS011;7165;52.388;4.928;2022-10-16T15:28:26;8.35;;;2.85;;
14171;SDS011;7165;52.388;4.928;2022-10-16T15:30:53;7.50;;;2.85;;
14171;SDS011;7165;52.388;4.928;2022-10-16T15:33:22;5.10;;;2.47;;
14171;SDS011;7165;52.388;4.928;2022-10-16T15:35:54;10.25;;;3.65;;
14171;SDS011;7165;52.388;4.928;2022-10-16T15:38:21;7.13;;;3.50;;
14171;SDS011;7165;52.388;4.928;2022-10-16T15:40:56;7.05;;;2.60;;